Mitchell, IN (47446)

4:59 AM EST on February 12, 2016 (GMT -0500)
Carter Addition | | Change Station
CLOSE
Current Station
Personal Weather Station
Location: Mitchell, IN
Elevation: 625 ft
Nearby Weather Stations

Elev 625 ft 38.74 °N, 86.47 °W | Updated 4 minutes ago

Overcast
Overcast
23.0 °F
Feels Like 23 °F
N
0.0
Wind Variable Wind from North
Gusts 0.0 mph

Today
High -- | Low -- °F
--% Chance of Precip.
Yesterday
High -- | Low -- °F
Precip. -- in
Pressure 30.21 in
Visibility 10.0 miles
Clouds Overcast 6500 ft
Windchill 23 °F
Dew Point 12 °F
Humidity 62%
Rainfall 0.00 in
Snow Depth Not available.
7:41 AM 6:19 PM
Waxing Crescent, 19% visible
METAR KBMG 120953Z AUTO 13003KT 10SM OVC065 M06/M12 A3017 RMK AO2 SLP228 T10611117
Pressure 30.21 in
Visibility 10.0 miles
Clouds Overcast 6500 ft
Windchill 23 °F
Dew Point 12 °F
Humidity 62%
Rainfall 0.00 in
Snow Depth Not available.
7:41 AM 6:19 PM
Waxing Crescent, 19% visible
METAR KBMG 120953Z AUTO 13003KT 10SM OVC065 M06/M12 A3017 RMK AO2 SLP228 T10611117

10-Day Weather Forecast

Almanac

Astronomy

Feb. 12, 2016 Rise Set
Actual Time
Civil Twilight
Nautical Twilight
Astronomical Twilight
Moon
Length of Visible Light
Length of Day
Tomorrow will be .
, % of the Moon is Illuminated

Today's Extremes

State Highs State Lows

Community

WunderPhotos

Upload Photos

1,892,286 photos uploaded!

WunderBlog® & News

Nearby

Air Quality

  Air Quality AQ Index Pollutant
Not available.

Snow Depth

Station Depth Elevation

Earthquake Activity

City Distance Mag. Time & Date
Minimum magnitude displayed is 2.5.

Coastal Water Temperatures

Place Temperature

Stations

Nearby Weather Stations

Station Location Temp. Windchill Dew Point Humidity Wind Precip. Elev Updated Type
                   

Watches & Warnings

There are currently no watches in effect.